createdAt,value
2018-03-03T00:00:06.599Z,9.80
2018-03-03T00:02:34.939Z,9.80
2018-03-03T00:05:02.527Z,9.70
2018-03-03T00:07:30.209Z,9.70
2018-03-03T00:09:58.539Z,9.70
2018-03-03T00:12:26.164Z,9.70
2018-03-03T00:14:53.751Z,9.70
2018-03-03T00:17:21.322Z,9.60
2018-03-03T00:19:49.656Z,9.70
2018-03-03T00:22:30.031Z,9.60
2018-03-03T00:24:57.660Z,9.60
2018-03-03T00:27:25.255Z,9.60
2018-03-03T00:29:52.885Z,9.60
2018-03-03T00:32:21.363Z,9.60
2018-03-03T00:34:49.079Z,9.50
2018-03-03T00:37:16.661Z,9.50
2018-03-03T00:39:44.257Z,9.50
2018-03-03T00:42:12.589Z,9.50
2018-03-03T00:44:40.818Z,9.50
2018-03-03T00:47:09.202Z,9.60
2018-03-03T00:49:37.553Z,9.50
2018-03-03T00:52:05.881Z,9.50
2018-03-03T00:54:33.464Z,9.50
2018-03-03T00:57:01.052Z,9.50
2018-03-03T00:59:28.630Z,9.40
2018-03-03T01:01:57.010Z,9.50
2018-03-03T01:04:25.396Z,9.40
2018-03-03T01:06:53.765Z,9.40
2018-03-03T01:09:22.118Z,9.40
2018-03-03T01:11:49.712Z,9.40
2018-03-03T01:14:18.098Z,9.40
2018-03-03T01:16:46.464Z,9.40
2018-03-03T01:19:14.850Z,9.40
2018-03-03T01:21:43.228Z,9.40
2018-03-03T01:24:12.493Z,9.40
2018-03-03T01:26:40.177Z,9.30
2018-03-03T01:29:07.861Z,9.40
2018-03-03T01:31:36.196Z,9.30
2018-03-03T01:34:03.768Z,9.30
2018-03-03T01:36:31.465Z,9.40
2018-03-03T01:38:59.831Z,9.30
2018-03-03T01:41:27.412Z,9.30
2018-03-03T01:43:55.751Z,9.30
2018-03-03T01:46:23.325Z,9.30
2018-03-03T01:48:51.014Z,9.30
2018-03-03T01:51:31.303Z,9.30
2018-03-03T01:53:58.877Z,9.30
2018-03-03T01:56:26.470Z,9.30
2018-03-03T01:58:54.053Z,9.30
2018-03-03T02:01:22.424Z,9.20
2018-03-03T02:03:50.881Z,9.30
2018-03-03T02:06:20.004Z,9.30
2018-03-03T02:08:48.338Z,9.20
2018-03-03T02:11:15.914Z,9.20
2018-03-03T02:13:43.574Z,9.20
2018-03-03T02:16:12.419Z,9.30
2018-03-03T02:18:41.061Z,9.20
2018-03-03T02:21:08.748Z,9.20
2018-03-03T02:23:37.087Z,9.20
2018-03-03T02:26:04.688Z,9.20
2018-03-03T02:28:33.025Z,9.20
2018-03-03T02:31:00.607Z,9.20
2018-03-03T02:33:28.197Z,9.20
2018-03-03T02:35:55.769Z,9.20
2018-03-03T02:38:23.349Z,9.20
2018-03-03T02:40:51.093Z,9.20
2018-03-03T02:43:18.653Z,9.10
2018-03-03T02:45:46.232Z,9.20
2018-03-03T02:48:13.801Z,9.20
2018-03-03T02:50:42.225Z,9.20
2018-03-03T02:53:11.005Z,9.20
2018-03-03T02:55:38.564Z,9.20
2018-03-03T02:58:06.250Z,9.20
2018-03-03T03:00:34.629Z,9.20
2018-03-03T03:03:02.959Z,9.10
2018-03-03T03:05:30.522Z,9.10
2018-03-03T03:07:58.120Z,9.10
2018-03-03T03:10:26.466Z,9.10
2018-03-03T03:12:54.153Z,9.10
2018-03-03T03:15:21.843Z,9.20
2018-03-03T03:17:49.425Z,9.10
2018-03-03T03:20:17.049Z,9.10
2018-03-03T03:22:45.429Z,9.10
2018-03-03T03:25:13.763Z,9.10
2018-03-03T03:27:42.521Z,9.10
2018-03-03T03:30:11.173Z,9.10
2018-03-03T03:32:38.768Z,9.10
2018-03-03T03:35:06.339Z,9.20
2018-03-03T03:37:33.926Z,9.10
2018-03-03T03:40:01.486Z,9.10
2018-03-03T03:42:30.077Z,9.10
2018-03-03T03:44:57.668Z,9.10
2018-03-03T03:47:26.051Z,9.10
2018-03-03T03:49:54.417Z,9.10
2018-03-03T03:52:22.099Z,9.10
2018-03-03T03:54:50.438Z,9.00
2018-03-03T03:57:18.021Z,9.00
2018-03-03T03:59:45.590Z,9.10
2018-03-03T04:02:13.961Z,9.10
2018-03-03T04:04:42.813Z,9.00
2018-03-03T04:07:11.308Z,9.00
2018-03-03T04:09:38.870Z,9.00
2018-03-03T04:12:06.467Z,9.00
2018-03-03T04:14:34.791Z,9.00
2018-03-03T04:17:02.359Z,9.00
2018-03-03T04:19:29.931Z,9.00
2018-03-03T04:21:57.487Z,9.00
2018-03-03T04:24:25.051Z,9.00
2018-03-03T04:26:52.612Z,9.00
2018-03-03T04:29:20.168Z,9.00
2018-03-03T04:31:47.840Z,9.00
2018-03-03T04:34:15.432Z,9.00
2018-03-03T04:36:43.776Z,9.00
2018-03-03T04:39:12.591Z,9.00
2018-03-03T04:41:41.405Z,9.00
2018-03-03T04:44:10.146Z,9.00
2018-03-03T04:46:37.714Z,9.00
2018-03-03T04:49:05.298Z,9.00
2018-03-03T04:51:33.625Z,9.00
2018-03-03T04:54:01.203Z,9.00
2018-03-03T04:56:28.766Z,9.00
2018-03-03T04:59:12.136Z,9.00
2018-03-03T05:01:59.557Z,9.00
2018-03-03T05:04:35.522Z,8.90
2018-03-03T05:10:11.398Z,8.80
2018-03-03T05:12:40.190Z,8.90
2018-03-03T05:15:13.328Z,8.80
2018-03-03T05:17:42.580Z,8.80
2018-03-03T05:23:23.714Z,8.80
2018-03-03T05:25:57.079Z,8.80
2018-03-03T05:28:31.057Z,8.90
2018-03-03T05:31:04.370Z,8.80
2018-03-03T05:33:38.360Z,8.80
2018-03-03T05:36:11.679Z,8.80
2018-03-03T05:38:54.924Z,8.80
2018-03-03T05:44:32.900Z,8.80
2018-03-03T05:47:06.089Z,8.80
2018-03-03T05:49:40.250Z,8.70
2018-03-03T05:52:14.198Z,8.80
2018-03-03T05:54:47.391Z,8.80
2018-03-03T06:00:34.684Z,8.80
2018-03-03T06:03:08.741Z,8.80
2018-03-03T06:08:42.809Z,8.80
2018-03-03T06:11:11.400Z,8.80
2018-03-03T06:13:40.226Z,8.70
2018-03-03T06:16:07.855Z,8.80
2018-03-03T06:18:35.578Z,8.80
2018-03-03T06:21:03.154Z,8.80
2018-03-03T06:23:30.753Z,8.90
2018-03-03T06:25:59.102Z,8.80
2018-03-03T06:28:26.670Z,8.80
2018-03-03T06:30:54.235Z,8.80
2018-03-03T06:33:21.801Z,8.80
2018-03-03T06:35:49.362Z,8.80
2018-03-03T06:38:16.953Z,8.90
2018-03-03T06:40:44.534Z,8.80
2018-03-03T06:43:12.268Z,8.80
2018-03-03T06:45:40.834Z,8.80
2018-03-03T06:48:08.485Z,8.80
2018-03-03T06:50:36.094Z,8.80
2018-03-03T06:53:03.740Z,8.90
2018-03-03T06:55:32.117Z,8.80
2018-03-03T06:58:00.445Z,8.80
2018-03-03T07:00:28.255Z,8.80
2018-03-03T07:02:56.758Z,8.90
2018-03-03T07:05:24.395Z,8.90
2018-03-03T07:07:52.081Z,8.80
2018-03-03T07:10:19.864Z,8.90
2018-03-03T07:12:47.534Z,8.90
2018-03-03T07:15:15.715Z,8.90
2018-03-03T07:17:43.296Z,8.80
2018-03-03T07:20:11.495Z,8.80
2018-03-03T07:22:39.102Z,8.90
2018-03-03T07:25:06.721Z,8.90
2018-03-03T07:27:35.060Z,8.90
2018-03-03T07:30:02.627Z,8.90
2018-03-03T07:32:30.202Z,8.90
2018-03-03T07:34:57.787Z,8.90
2018-03-03T07:37:26.247Z,8.90
2018-03-03T07:39:53.847Z,8.90
2018-03-03T07:42:21.417Z,8.90
2018-03-03T07:44:48.973Z,8.80
2018-03-03T07:47:16.567Z,8.80
2018-03-03T07:49:44.139Z,8.80
2018-03-03T07:52:11.709Z,8.90
2018-03-03T07:54:40.068Z,8.80
2018-03-03T07:57:13.131Z,8.90
2018-03-03T07:59:41.978Z,9.00
2018-03-03T08:02:10.579Z,8.90
2018-03-03T08:04:38.909Z,8.90
2018-03-03T08:07:06.501Z,8.90
2018-03-03T08:09:34.167Z,8.90
2018-03-03T08:12:01.859Z,8.90
2018-03-03T08:14:29.466Z,8.90
2018-03-03T08:16:57.045Z,8.90
2018-03-03T08:25:19.731Z,8.90
2018-03-03T08:27:47.336Z,8.90
2018-03-03T08:30:14.986Z,8.90
2018-03-03T08:32:43.357Z,9.00
2018-03-03T08:35:11.734Z,8.90
2018-03-03T08:37:40.130Z,8.90
2018-03-03T08:40:07.754Z,8.90
2018-03-03T08:42:36.169Z,8.90
2018-03-03T08:45:03.816Z,8.90
2018-03-03T08:47:32.193Z,9.00
2018-03-03T08:49:59.974Z,9.00
2018-03-03T08:52:27.624Z,9.00
2018-03-03T08:54:55.964Z,9.00
2018-03-03T08:57:23.528Z,9.00
2018-03-03T08:59:51.120Z,9.00
2018-03-03T09:02:19.461Z,9.00
2018-03-03T09:04:47.036Z,9.00
2018-03-03T09:07:15.444Z,9.00
2018-03-03T09:09:43.936Z,9.00
2018-03-03T09:12:12.402Z,9.00
2018-03-03T09:14:40.288Z,9.00
2018-03-03T09:17:07.930Z,9.00
2018-03-03T09:19:35.715Z,9.00
2018-03-03T09:22:04.300Z,9.00
2018-03-03T09:24:32.270Z,9.10
2018-03-03T09:27:00.669Z,9.00
2018-03-03T09:29:28.254Z,9.00
2018-03-03T09:31:55.870Z,9.00
2018-03-03T09:34:24.223Z,9.00
2018-03-03T09:36:51.938Z,9.00
2018-03-03T09:39:19.682Z,9.10
2018-03-03T09:41:48.079Z,9.10
2018-03-03T09:44:15.890Z,9.10
2018-03-03T09:46:43.475Z,9.10
2018-03-03T09:49:11.838Z,9.20
2018-03-03T09:51:41.452Z,9.10
2018-03-03T09:54:09.130Z,9.10
2018-03-03T09:56:37.492Z,9.10
2018-03-03T09:59:05.074Z,9.10
2018-03-03T10:01:33.680Z,9.10
2018-03-03T10:04:01.225Z,9.20
2018-03-03T10:06:28.839Z,9.10
2018-03-03T10:08:57.269Z,9.10
2018-03-03T10:11:24.862Z,9.10
2018-03-03T10:13:52.472Z,9.10
2018-03-03T10:16:20.970Z,9.10
2018-03-03T10:18:48.616Z,9.10
2018-03-03T10:21:17.071Z,9.10
2018-03-03T10:23:44.882Z,9.20
2018-03-03T10:26:12.549Z,9.20
2018-03-03T10:28:40.148Z,9.20
2018-03-03T10:31:07.900Z,9.20
2018-03-03T10:33:35.585Z,9.20
2018-03-03T10:36:03.297Z,9.20
2018-03-03T10:38:30.870Z,9.20
2018-03-03T10:40:58.444Z,9.20
2018-03-03T10:43:26.155Z,9.20
2018-03-03T10:45:53.944Z,9.20
2018-03-03T10:48:22.282Z,9.20
2018-03-03T10:50:49.921Z,9.20
2018-03-03T10:53:17.499Z,9.20
2018-03-03T10:55:45.094Z,9.20
2018-03-03T10:58:13.596Z,9.20
2018-03-03T11:00:42.516Z,9.20
2018-03-03T11:04:16.082Z,9.20
2018-03-03T11:06:43.860Z,9.20
2018-03-03T11:09:12.206Z,9.20
2018-03-03T11:11:41.536Z,9.20
2018-03-03T11:14:09.303Z,9.30
2018-03-03T11:16:36.918Z,9.20
2018-03-03T11:19:04.561Z,9.30
2018-03-03T11:21:32.180Z,9.30
2018-03-03T11:24:00.760Z,9.30
2018-03-03T11:26:29.094Z,9.20
2018-03-03T11:28:56.664Z,9.20
2018-03-03T11:31:24.255Z,9.30
2018-03-03T11:33:52.614Z,9.30
2018-03-03T11:36:20.403Z,9.20
2018-03-03T11:38:48.865Z,9.20
2018-03-03T11:41:16.451Z,9.30
2018-03-03T11:43:44.923Z,9.20
2018-03-03T11:46:12.491Z,9.20
2018-03-03T11:48:41.853Z,9.20
2018-03-03T11:51:10.080Z,9.20
2018-03-03T11:53:37.693Z,9.20
2018-03-03T11:56:05.372Z,9.30
2018-03-03T11:58:32.971Z,9.30
2018-03-03T12:01:00.644Z,9.20
2018-03-03T12:03:28.805Z,9.20
2018-03-03T12:05:56.441Z,9.20
2018-03-03T12:08:24.133Z,9.30
2018-03-03T12:10:51.772Z,9.30
2018-03-03T12:13:20.306Z,9.20
2018-03-03T12:15:48.004Z,9.30
2018-03-03T12:18:15.569Z,9.30
2018-03-03T12:20:43.158Z,9.20
2018-03-03T12:23:11.790Z,9.20
2018-03-03T12:25:40.123Z,9.20
2018-03-03T12:28:10.149Z,9.20
2018-03-03T12:30:37.732Z,9.20
2018-03-03T12:33:05.324Z,9.20
2018-03-03T12:35:34.454Z,9.20
2018-03-03T12:38:02.931Z,9.20
2018-03-03T12:40:31.476Z,9.20
2018-03-03T12:42:59.247Z,9.20
2018-03-03T12:45:27.001Z,9.20
2018-03-03T12:47:54.612Z,9.20
2018-03-03T12:50:23.087Z,9.20
2018-03-03T12:52:52.509Z,9.20
2018-03-03T12:55:20.161Z,9.20
2018-03-03T12:57:48.627Z,9.20
2018-03-03T13:00:16.203Z,9.20
2018-03-03T13:02:44.551Z,9.20
2018-03-03T13:05:12.124Z,9.20
2018-03-03T13:07:40.104Z,9.20
2018-03-03T13:10:07.745Z,9.20
2018-03-03T13:12:36.103Z,9.20
2018-03-03T13:15:03.680Z,9.20
2018-03-03T13:17:31.349Z,9.20
2018-03-03T13:20:00.465Z,9.20
2018-03-03T13:22:28.961Z,9.20
2018-03-03T13:24:56.537Z,9.20
2018-03-03T13:27:24.105Z,9.20
2018-03-03T13:29:51.732Z,9.20
2018-03-03T13:32:20.112Z,9.20
2018-03-03T13:34:48.485Z,9.20
2018-03-03T13:37:16.056Z,9.20
2018-03-03T13:39:44.587Z,9.20
2018-03-03T13:42:12.172Z,9.20
2018-03-03T13:44:42.203Z,9.20
2018-03-03T13:47:10.196Z,9.20
2018-03-03T13:49:38.570Z,9.90
2018-03-03T13:52:06.949Z,10.40
2018-03-03T13:54:35.317Z,10.80
2018-03-03T13:57:04.638Z,11.30
2018-03-03T13:59:32.914Z,11.70
2018-03-03T14:02:00.570Z,12.10
2018-03-03T14:04:28.233Z,12.40
2018-03-03T14:06:56.746Z,12.70
2018-03-03T14:09:24.389Z,12.90
2018-03-03T14:11:52.768Z,13.00
2018-03-03T14:14:20.736Z,13.20
2018-03-03T14:16:48.386Z,13.30
2018-03-03T14:19:16.740Z,13.50
2018-03-03T14:21:44.358Z,13.60
2018-03-03T14:24:11.994Z,13.70
2018-03-03T14:26:41.158Z,13.80
2018-03-03T14:29:08.755Z,13.90
2018-03-03T14:31:37.173Z,14.00
2018-03-03T14:34:04.903Z,14.10
2018-03-03T14:36:32.557Z,14.10
2018-03-03T14:39:00.962Z,14.20
2018-03-03T14:41:28.814Z,14.30
2018-03-03T14:43:56.422Z,14.40
2018-03-03T14:46:24.014Z,14.40
2018-03-03T14:48:52.402Z,14.50
2018-03-03T14:51:20.764Z,14.50
2018-03-03T14:53:48.582Z,14.60
2018-03-03T14:56:16.317Z,14.60
2018-03-03T14:58:44.693Z,14.60
2018-03-03T15:01:13.054Z,14.70
2018-03-03T15:03:40.720Z,14.80
2018-03-03T15:06:08.388Z,14.80
2018-03-03T15:08:36.010Z,14.90
2018-03-03T15:11:03.613Z,14.70
2018-03-03T15:13:31.952Z,14.90
2018-03-03T15:15:59.660Z,15.00
2018-03-03T15:18:27.998Z,15.00
2018-03-03T15:20:55.596Z,15.00
2018-03-03T15:23:23.277Z,15.10
2018-03-03T15:25:51.627Z,15.20
2018-03-03T15:28:19.213Z,15.20
2018-03-03T15:30:47.572Z,15.20
2018-03-03T15:33:15.245Z,15.20
2018-03-03T15:35:43.008Z,15.30
2018-03-03T15:38:12.715Z,15.20
2018-03-03T15:40:41.412Z,15.30
2018-03-03T15:43:10.907Z,15.30
2018-03-03T15:45:38.560Z,15.30
2018-03-03T15:48:06.133Z,15.30
2018-03-03T15:50:33.824Z,15.40
2018-03-03T15:53:02.181Z,15.40
2018-03-03T15:55:30.572Z,15.50
2018-03-03T15:57:59.005Z,15.50
2018-03-03T16:00:26.588Z,15.50
2018-03-03T16:02:54.176Z,15.50
2018-03-03T16:05:22.513Z,15.60
2018-03-03T16:07:50.121Z,15.60
2018-03-03T16:10:17.707Z,15.60
2018-03-03T16:12:45.337Z,15.70
2018-03-03T16:15:12.935Z,15.70
2018-03-03T16:17:40.791Z,15.70
2018-03-03T16:20:08.651Z,15.60
2018-03-03T16:22:36.234Z,15.70
2018-03-03T16:25:03.853Z,15.70
2018-03-03T16:27:32.257Z,15.70
2018-03-03T16:29:59.899Z,15.80
2018-03-03T16:32:28.279Z,15.80
2018-03-03T16:34:56.872Z,15.80
2018-03-03T16:37:24.610Z,15.80
2018-03-03T16:39:52.220Z,15.80
2018-03-03T16:42:19.865Z,15.80
2018-03-03T16:44:47.492Z,15.80
2018-03-03T16:47:15.148Z,15.80
2018-03-03T16:49:42.764Z,15.80
2018-03-03T16:52:11.401Z,15.80
2018-03-03T16:54:39.081Z,15.80
2018-03-03T16:57:07.438Z,15.90
2018-03-03T16:59:36.535Z,15.90
2018-03-03T17:02:04.108Z,15.90
2018-03-03T17:04:31.689Z,15.90
2018-03-03T17:06:59.375Z,15.90
2018-03-03T17:09:27.003Z,15.90
2018-03-03T17:11:55.380Z,15.90
2018-03-03T17:14:23.861Z,16.00
2018-03-03T17:16:52.225Z,16.00
2018-03-03T17:19:19.906Z,16.00
2018-03-03T17:21:48.377Z,16.10
2018-03-03T17:24:16.075Z,16.10
2018-03-03T17:26:43.694Z,16.10
2018-03-03T17:29:12.615Z,16.10
2018-03-03T17:31:42.429Z,16.10
2018-03-03T17:34:11.621Z,16.00
2018-03-03T17:36:41.165Z,16.10
2018-03-03T17:39:08.758Z,16.10
2018-03-03T17:41:36.343Z,16.10
2018-03-03T17:44:04.013Z,16.10
2018-03-03T17:46:32.372Z,16.10
2018-03-03T17:49:00.028Z,16.10
2018-03-03T17:51:27.726Z,16.10
2018-03-03T17:53:55.309Z,16.10
2018-03-03T17:56:22.888Z,16.10
2018-03-03T17:58:50.508Z,16.10
2018-03-03T18:01:18.960Z,16.10
2018-03-03T18:03:47.481Z,16.10
2018-03-03T18:06:15.862Z,16.20
2018-03-03T18:08:44.649Z,16.10
2018-03-03T18:11:15.664Z,16.20
2018-03-03T18:13:44.203Z,16.20
2018-03-03T18:16:11.836Z,16.20
2018-03-03T18:18:40.050Z,16.00
2018-03-03T18:21:07.659Z,15.80
2018-03-03T18:23:36.006Z,15.50
2018-03-03T18:26:03.587Z,15.10
2018-03-03T18:28:31.257Z,14.70
2018-03-03T18:30:59.770Z,14.40
2018-03-03T18:33:27.484Z,14.30
2018-03-03T18:35:55.316Z,14.00
2018-03-03T18:38:22.919Z,13.80
2018-03-03T18:40:50.599Z,13.50
2018-03-03T18:43:18.980Z,13.30
2018-03-03T18:45:47.448Z,13.10
2018-03-03T18:48:15.116Z,13.10
2018-03-03T18:50:42.769Z,12.90
2018-03-03T18:53:11.174Z,12.90
2018-03-03T18:55:40.179Z,12.70
2018-03-03T18:58:07.941Z,12.60
2018-03-03T19:00:36.346Z,12.20
2018-03-03T19:03:03.989Z,12.40
2018-03-03T19:05:31.537Z,12.20
2018-03-03T19:07:59.921Z,12.10
2018-03-03T19:10:28.278Z,12.30
2018-03-03T19:12:55.849Z,12.50
2018-03-03T19:15:24.244Z,12.90
2018-03-03T19:17:51.814Z,13.30
2018-03-03T19:20:19.584Z,13.60
2018-03-03T19:22:47.218Z,13.90
2018-03-03T19:25:15.613Z,14.20
2018-03-03T19:27:43.957Z,14.40
2018-03-03T19:30:12.985Z,14.60
2018-03-03T19:32:42.491Z,14.80
2018-03-03T19:35:11.873Z,14.90
2018-03-03T19:37:40.106Z,15.00
2018-03-03T19:40:07.733Z,15.10
2018-03-03T19:42:35.374Z,15.20
2018-03-03T19:45:02.951Z,15.20
2018-03-03T19:47:31.300Z,15.40
2018-03-03T19:49:59.019Z,15.40
2018-03-03T19:52:26.839Z,15.50
2018-03-03T19:54:54.521Z,15.50
2018-03-03T19:57:22.899Z,15.60
2018-03-03T19:59:51.255Z,15.60
2018-03-03T20:02:18.911Z,15.60
2018-03-03T20:04:46.602Z,15.70
2018-03-03T20:07:15.085Z,15.70
2018-03-03T20:09:43.461Z,15.70
2018-03-03T20:12:11.864Z,15.70
2018-03-03T20:14:40.162Z,15.80
2018-03-03T20:17:07.751Z,15.80
2018-03-03T20:19:35.343Z,15.90
2018-03-03T20:22:03.719Z,15.80
2018-03-03T20:24:32.120Z,15.90
2018-03-03T20:26:59.867Z,15.90
2018-03-03T20:29:28.230Z,15.90
2018-03-03T20:31:56.768Z,15.90
2018-03-03T20:34:24.345Z,16.00
2018-03-03T20:36:52.073Z,16.00
2018-03-03T20:39:20.586Z,16.00
2018-03-03T20:41:48.231Z,16.00
2018-03-03T20:44:15.818Z,16.00
2018-03-03T20:46:43.393Z,16.10
2018-03-03T20:49:12.146Z,16.10
2018-03-03T20:51:40.381Z,16.10
2018-03-03T20:54:07.984Z,16.20
2018-03-03T20:56:35.559Z,16.10
2018-03-03T20:59:03.139Z,16.20
2018-03-03T21:01:30.860Z,16.20
2018-03-03T21:03:58.444Z,16.20
2018-03-03T21:06:26.023Z,16.20
2018-03-03T21:08:53.602Z,16.10
2018-03-03T21:11:23.700Z,15.80
2018-03-03T21:13:51.281Z,15.60
2018-03-03T21:16:18.856Z,15.30
2018-03-03T21:18:47.202Z,15.00
2018-03-03T21:21:14.793Z,14.70
2018-03-03T21:23:42.367Z,14.40
2018-03-03T21:26:11.768Z,14.10
2018-03-03T21:28:41.690Z,13.80
2018-03-03T21:31:09.343Z,13.70
2018-03-03T21:33:37.829Z,13.50
2018-03-03T21:36:06.365Z,13.20
2018-03-03T21:38:33.910Z,13.10
2018-03-03T21:41:01.493Z,12.90
2018-03-03T21:43:29.105Z,12.90
2018-03-03T21:45:57.476Z,12.80
2018-03-03T21:48:25.973Z,12.80
2018-03-03T21:50:53.557Z,12.80
2018-03-03T21:53:21.185Z,12.70
2018-03-03T21:55:49.669Z,12.50
2018-03-03T21:58:18.159Z,12.50
2018-03-03T22:00:45.813Z,12.30
2018-03-03T22:03:14.222Z,12.30
2018-03-03T22:06:59.756Z,12.00
2018-03-03T22:09:27.452Z,11.90
2018-03-03T22:11:55.825Z,11.90
2018-03-03T22:14:24.210Z,11.80
2018-03-03T22:16:52.554Z,11.50
2018-03-03T22:19:20.274Z,11.50
2018-03-03T22:21:47.909Z,11.50
2018-03-03T22:24:16.246Z,11.30
2018-03-03T22:26:43.838Z,11.20
2018-03-03T22:29:12.177Z,11.10
2018-03-03T22:31:40.209Z,11.10
2018-03-03T22:34:07.863Z,11.00
2018-03-03T22:36:36.214Z,11.00
2018-03-03T22:39:03.788Z,11.10
2018-03-03T22:41:31.354Z,11.00
2018-03-03T22:43:59.706Z,11.00
2018-03-03T22:46:27.287Z,10.90
2018-03-03T22:48:54.877Z,10.90
2018-03-03T22:51:23.216Z,10.90
2018-03-03T22:53:50.830Z,10.90
2018-03-03T22:56:18.406Z,10.80
2018-03-03T22:58:45.979Z,10.80
2018-03-03T23:01:13.562Z,10.70
2018-03-03T23:03:41.141Z,10.70
2018-03-03T23:06:08.826Z,10.70
2018-03-03T23:08:37.185Z,10.70
2018-03-03T23:11:05.393Z,10.70
2018-03-03T23:13:33.054Z,10.60
2018-03-03T23:16:01.405Z,10.60
2018-03-03T23:18:29.091Z,10.60
2018-03-03T23:20:57.449Z,10.60
2018-03-03T23:23:25.160Z,10.60
2018-03-03T23:25:52.788Z,10.50
2018-03-03T23:28:21.130Z,10.50
2018-03-03T23:30:48.809Z,10.50
2018-03-03T23:33:16.494Z,10.40
2018-03-03T23:35:44.839Z,10.50
2018-03-03T23:38:12.428Z,10.50
2018-03-03T23:40:40.101Z,10.40
2018-03-03T23:43:08.444Z,10.50
2018-03-03T23:45:37.314Z,10.40
2018-03-03T23:48:05.356Z,10.40
2018-03-03T23:50:32.930Z,10.40
2018-03-03T23:53:00.508Z,10.40
2018-03-03T23:55:28.079Z,10.40
2018-03-03T23:57:55.707Z,10.40
